createdAt,value
2019-03-03T00:02:01.239Z,952.76
2019-03-03T00:04:25.263Z,952.82
2019-03-03T00:06:51.500Z,952.87
2019-03-03T00:09:17.807Z,952.84
2019-03-03T00:11:44.122Z,952.88
2019-03-03T00:14:10.431Z,952.87
2019-03-03T00:16:36.746Z,952.84
2019-03-03T00:19:03.055Z,952.92
2019-03-03T00:21:29.423Z,952.91
2019-03-03T00:23:55.710Z,952.93
2019-03-03T00:26:21.989Z,952.94
2019-03-03T00:28:48.299Z,952.94
2019-03-03T00:31:14.608Z,952.98
2019-03-03T00:33:40.919Z,953.00
2019-03-03T00:36:07.227Z,953.00
2019-03-03T00:38:33.536Z,953.04
2019-03-03T00:40:59.838Z,953.00
2019-03-03T00:43:26.158Z,953.06
2019-03-03T00:45:52.465Z,953.03
2019-03-03T00:48:18.776Z,953.06
2019-03-03T00:50:45.123Z,953.03
2019-03-03T00:53:11.401Z,953.04
2019-03-03T00:55:37.706Z,953.04
2019-03-03T00:58:04.036Z,953.03
2019-03-03T01:00:30.344Z,953.06
2019-03-03T01:02:56.661Z,952.98
2019-03-03T01:05:22.969Z,953.06
2019-03-03T01:07:49.283Z,953.02
2019-03-03T01:10:15.589Z,953.02
2019-03-03T01:12:42.000Z,953.04
2019-03-03T01:15:08.307Z,953.01
2019-03-03T01:17:34.635Z,952.98
2019-03-03T01:20:00.942Z,952.97
2019-03-03T01:22:27.256Z,953.03
2019-03-03T01:24:53.555Z,953.00
2019-03-03T01:27:19.870Z,953.01
2019-03-03T01:29:46.173Z,953.00
2019-03-03T01:32:12.486Z,953.01
2019-03-03T01:34:38.793Z,952.99
2019-03-03T01:37:05.101Z,952.94
2019-03-03T01:39:31.405Z,952.98
2019-03-03T01:41:57.742Z,952.91
2019-03-03T01:44:24.050Z,952.93
2019-03-03T01:46:50.355Z,952.97
2019-03-03T01:49:16.675Z,952.93
2019-03-03T01:51:42.982Z,953.09
2019-03-03T01:54:09.287Z,953.07
2019-03-03T01:56:35.592Z,953.02
2019-03-03T01:59:01.906Z,953.16
2019-03-03T02:01:28.211Z,953.09
2019-03-03T02:03:54.516Z,953.11
2019-03-03T02:06:20.823Z,953.05
2019-03-03T02:08:47.136Z,953.04
2019-03-03T02:11:13.444Z,953.09
2019-03-03T02:13:39.748Z,953.05
2019-03-03T02:16:06.083Z,953.11
2019-03-03T02:18:32.393Z,953.11
2019-03-03T02:20:58.702Z,953.01
2019-03-03T02:23:25.010Z,953.00
2019-03-03T02:25:51.316Z,953.03
2019-03-03T02:28:17.624Z,953.03
2019-03-03T02:30:43.937Z,953.02
2019-03-03T02:33:10.269Z,953.04
2019-03-03T02:35:36.574Z,953.08
2019-03-03T02:38:02.891Z,953.08
2019-03-03T02:40:29.197Z,953.16
2019-03-03T02:42:55.505Z,953.18
2019-03-03T02:45:21.820Z,953.29
2019-03-03T02:47:48.122Z,953.20
2019-03-03T02:50:14.438Z,953.28
2019-03-03T02:52:40.750Z,953.25
2019-03-03T02:55:07.051Z,953.32
2019-03-03T02:57:33.393Z,953.39
2019-03-03T02:59:59.711Z,953.38
2019-03-03T03:02:26.020Z,953.39
2019-03-03T03:04:52.325Z,953.33
2019-03-03T03:07:18.645Z,953.33
2019-03-03T03:09:44.945Z,953.34
2019-03-03T03:12:11.260Z,953.32
2019-03-03T03:14:37.582Z,953.24
2019-03-03T03:17:03.878Z,953.31
2019-03-03T03:19:30.197Z,953.29
2019-03-03T03:21:56.499Z,953.29
2019-03-03T03:24:22.810Z,953.27
2019-03-03T03:26:49.126Z,953.31
2019-03-03T03:29:15.428Z,953.32
2019-03-03T03:31:41.738Z,953.27
2019-03-03T03:34:08.046Z,953.29
2019-03-03T03:36:36.691Z,953.28
2019-03-03T03:39:00.665Z,953.31
2019-03-03T03:41:26.999Z,953.25
2019-03-03T03:43:53.293Z,953.30
2019-03-03T03:46:19.601Z,953.31
2019-03-03T03:48:45.908Z,953.26
2019-03-03T03:51:12.223Z,953.30
2019-03-03T03:53:38.529Z,953.28
2019-03-03T03:56:04.845Z,953.28
2019-03-03T03:58:31.161Z,953.34
2019-03-03T04:00:57.474Z,953.28
2019-03-03T04:03:23.780Z,953.31
2019-03-03T04:05:50.090Z,953.35
2019-03-03T04:08:16.403Z,953.33
2019-03-03T04:10:42.706Z,953.34
2019-03-03T04:13:09.014Z,953.38
2019-03-03T04:15:35.320Z,953.39
2019-03-03T04:18:01.635Z,953.32
2019-03-03T04:20:27.941Z,953.43
2019-03-03T04:22:54.261Z,953.41
2019-03-03T04:25:20.561Z,953.43
2019-03-03T04:27:46.917Z,953.44
2019-03-03T04:30:13.226Z,953.43
2019-03-03T04:32:39.534Z,953.46
2019-03-03T04:35:05.842Z,953.53
2019-03-03T04:37:32.153Z,953.49
2019-03-03T04:39:58.465Z,953.40
2019-03-03T04:42:24.773Z,953.42
2019-03-03T04:44:51.088Z,953.41
2019-03-03T04:47:17.397Z,953.39
2019-03-03T04:49:43.715Z,953.36
2019-03-03T04:52:10.025Z,953.42
2019-03-03T04:54:36.337Z,953.38
2019-03-03T04:57:02.646Z,953.45
2019-03-03T04:59:28.980Z,953.38
2019-03-03T05:01:55.285Z,953.39
2019-03-03T05:04:21.592Z,953.45
2019-03-03T05:06:47.899Z,953.43
2019-03-03T05:09:14.211Z,953.39
2019-03-03T05:11:40.512Z,953.49
2019-03-03T05:14:06.835Z,953.50
2019-03-03T05:16:33.163Z,953.50
2019-03-03T05:18:59.472Z,953.54
2019-03-03T05:21:25.782Z,953.61
2019-03-03T05:23:52.105Z,953.54
2019-03-03T05:26:18.411Z,953.53
2019-03-03T05:28:44.728Z,953.63
2019-03-03T05:31:11.041Z,953.76
2019-03-03T05:33:37.354Z,953.76
2019-03-03T05:36:03.669Z,953.71
2019-03-03T05:38:30.025Z,953.81
2019-03-03T05:40:56.339Z,953.81
2019-03-03T05:43:22.643Z,953.87
2019-03-03T05:45:49.210Z,953.84
2019-03-03T05:48:15.481Z,953.84
2019-03-03T05:50:41.799Z,953.86
2019-03-03T05:53:08.233Z,953.86
2019-03-03T05:55:34.565Z,953.96
2019-03-03T05:58:00.882Z,953.91
2019-03-03T06:00:27.193Z,953.99
2019-03-03T06:02:53.495Z,954.01
2019-03-03T06:05:20.064Z,954.02
2019-03-03T06:07:46.370Z,954.00
2019-03-03T06:10:12.673Z,953.99
2019-03-03T06:12:38.988Z,954.04
2019-03-03T06:15:05.295Z,954.03
2019-03-03T06:17:31.599Z,954.09
2019-03-03T06:19:57.912Z,954.05
2019-03-03T06:22:24.219Z,954.05
2019-03-03T06:24:50.532Z,954.05
2019-03-03T06:27:16.840Z,954.07
2019-03-03T06:29:43.167Z,954.14
2019-03-03T06:32:09.468Z,954.14
2019-03-03T06:34:35.777Z,954.15
2019-03-03T06:37:02.102Z,954.18
2019-03-03T06:39:28.447Z,954.18
2019-03-03T06:41:54.759Z,954.18
2019-03-03T06:44:21.065Z,954.22
2019-03-03T06:46:47.375Z,954.23
2019-03-03T06:49:13.687Z,954.23
2019-03-03T06:51:40.036Z,954.29
2019-03-03T06:54:06.317Z,954.31
2019-03-03T06:56:37.438Z,954.33
2019-03-03T06:59:10.156Z,954.36
2019-03-03T07:01:35.459Z,954.32
2019-03-03T07:04:01.673Z,954.39
2019-03-03T07:06:27.989Z,954.44
2019-03-03T07:08:54.297Z,954.42
2019-03-03T07:11:20.606Z,954.37
2019-03-03T07:13:46.919Z,954.40
2019-03-03T07:16:13.225Z,954.39
2019-03-03T07:18:39.592Z,954.35
2019-03-03T07:21:14.513Z,954.31
2019-03-03T07:23:39.209Z,954.48
2019-03-03T07:26:05.515Z,954.46
2019-03-03T07:28:31.821Z,954.48
2019-03-03T07:30:58.136Z,954.50
2019-03-03T07:33:24.439Z,954.51
2019-03-03T07:35:50.753Z,954.58
2019-03-03T07:38:17.055Z,954.60
2019-03-03T07:40:44.181Z,954.61
2019-03-03T07:43:10.484Z,954.61
2019-03-03T07:45:36.789Z,954.62
2019-03-03T07:48:03.103Z,954.63
2019-03-03T07:50:29.412Z,954.64
2019-03-03T07:52:55.725Z,954.67
2019-03-03T07:55:22.027Z,954.70
2019-03-03T07:57:48.341Z,954.70
2019-03-03T08:00:14.645Z,954.70
2019-03-03T08:02:40.958Z,954.75
2019-03-03T08:05:07.265Z,954.74
2019-03-03T08:07:33.577Z,954.68
2019-03-03T08:09:59.890Z,954.75
2019-03-03T08:12:26.230Z,954.72
2019-03-03T08:14:52.538Z,954.69
2019-03-03T08:17:18.846Z,954.77
2019-03-03T08:19:45.180Z,954.76
2019-03-03T08:22:11.491Z,954.74
2019-03-03T08:24:37.798Z,954.81
2019-03-03T08:27:04.113Z,954.80
2019-03-03T08:29:30.451Z,954.73
2019-03-03T08:31:56.757Z,954.78
2019-03-03T08:34:23.066Z,954.79
2019-03-03T08:36:49.371Z,954.80
2019-03-03T08:39:15.680Z,954.86
2019-03-03T08:41:42.059Z,954.77
2019-03-03T08:44:08.368Z,954.82
2019-03-03T08:46:34.718Z,954.77
2019-03-03T08:49:01.036Z,954.81
2019-03-03T08:51:27.348Z,954.83
2019-03-03T08:53:53.656Z,954.78
2019-03-03T08:56:19.965Z,954.80
2019-03-03T08:58:48.179Z,954.79
2019-03-03T09:01:12.792Z,954.81
2019-03-03T09:03:39.116Z,954.83
2019-03-03T09:06:05.851Z,954.84
2019-03-03T09:08:32.039Z,954.84
2019-03-03T09:10:58.353Z,954.82
2019-03-03T09:13:24.655Z,954.89
2019-03-03T09:15:50.968Z,954.89
2019-03-03T09:18:19.966Z,954.91
2019-03-03T09:20:43.792Z,954.96
2019-03-03T09:23:10.101Z,954.95
2019-03-03T09:25:36.408Z,954.96
2019-03-03T09:28:02.722Z,954.90
2019-03-03T09:30:29.025Z,954.93
2019-03-03T09:32:55.330Z,954.97
2019-03-03T09:35:21.642Z,954.95
2019-03-03T09:37:47.959Z,954.91
2019-03-03T09:40:14.399Z,954.96
2019-03-03T09:42:40.668Z,954.93
2019-03-03T09:45:07.004Z,954.93
2019-03-03T09:47:33.310Z,954.95
2019-03-03T09:49:59.623Z,954.96
2019-03-03T09:52:25.933Z,954.90
2019-03-03T09:54:52.246Z,954.95
2019-03-03T09:57:26.564Z,954.95
2019-03-03T09:59:52.849Z,955.02
2019-03-03T10:02:19.156Z,955.04
2019-03-03T10:04:45.491Z,955.01
2019-03-03T10:07:13.633Z,955.00
2019-03-03T10:09:38.106Z,954.96
2019-03-03T10:12:04.422Z,954.93
2019-03-03T10:14:30.728Z,954.95
2019-03-03T10:16:57.043Z,955.02
2019-03-03T10:19:23.359Z,954.93
2019-03-03T10:21:49.702Z,954.90
2019-03-03T10:24:17.787Z,954.76
2019-03-03T10:26:44.086Z,954.78
2019-03-03T10:29:12.195Z,954.65
2019-03-03T10:31:38.341Z,954.71
2019-03-03T10:34:04.660Z,954.60
2019-03-03T10:36:30.961Z,954.64
2019-03-03T10:38:57.275Z,954.55
2019-03-03T10:41:23.590Z,954.53
2019-03-03T10:43:49.897Z,954.64
2019-03-03T10:46:17.205Z,954.63
2019-03-03T10:48:43.507Z,954.57
2019-03-03T10:51:09.820Z,954.56
2019-03-03T10:53:36.130Z,954.59
2019-03-03T10:56:02.450Z,954.62
2019-03-03T10:58:28.882Z,954.64
2019-03-03T11:00:55.234Z,954.67
2019-03-03T11:03:21.546Z,954.59
2019-03-03T11:05:48.263Z,954.65
2019-03-03T11:08:14.586Z,954.63
2019-03-03T11:10:40.897Z,954.55
2019-03-03T11:13:07.205Z,954.63
2019-03-03T11:15:33.530Z,954.61
2019-03-03T11:17:59.856Z,954.60
2019-03-03T11:20:26.227Z,954.54
2019-03-03T11:22:52.529Z,954.54
2019-03-03T11:25:18.872Z,954.54
2019-03-03T11:27:45.144Z,954.48
2019-03-03T11:30:13.606Z,954.60
2019-03-03T11:32:37.921Z,954.55
2019-03-03T11:35:04.283Z,954.56
2019-03-03T11:37:30.594Z,954.53
2019-03-03T11:42:43.056Z,954.58
2019-03-03T11:45:16.336Z,954.64
2019-03-03T11:47:38.403Z,954.60
2019-03-03T11:50:04.804Z,954.56
2019-03-03T11:52:31.078Z,954.57
2019-03-03T11:55:15.821Z,954.50
2019-03-03T11:57:42.134Z,954.53
2019-03-03T12:00:09.920Z,954.55
2019-03-03T12:02:34.944Z,954.55
2019-03-03T12:05:01.255Z,954.49
2019-03-03T12:07:27.560Z,954.46
2019-03-03T12:09:53.869Z,954.47
2019-03-03T12:12:20.183Z,954.49
2019-03-03T12:14:46.495Z,954.48
2019-03-03T12:17:12.810Z,954.42
2019-03-03T12:19:39.460Z,954.47
2019-03-03T12:22:05.768Z,954.44
2019-03-03T12:24:32.076Z,954.42
2019-03-03T12:26:58.415Z,954.40
2019-03-03T12:29:24.729Z,954.42
2019-03-03T12:31:51.033Z,954.45
2019-03-03T12:34:17.355Z,954.28
2019-03-03T12:36:43.685Z,954.37
2019-03-03T12:39:09.992Z,954.36
2019-03-03T12:41:36.331Z,954.39
2019-03-03T12:44:02.759Z,954.43
2019-03-03T12:46:29.036Z,954.39
2019-03-03T12:48:55.349Z,954.37
2019-03-03T12:51:28.693Z,954.45
2019-03-03T12:53:54.807Z,954.38
2019-03-03T12:56:21.133Z,954.33
2019-03-03T12:58:47.475Z,954.31
2019-03-03T13:01:13.782Z,954.31
2019-03-03T13:03:43.413Z,954.27
2019-03-03T13:06:09.898Z,954.26
2019-03-03T13:08:36.209Z,954.25
2019-03-03T13:11:02.526Z,954.24
2019-03-03T13:13:28.958Z,954.27
2019-03-03T13:15:55.384Z,954.15
2019-03-03T13:18:21.688Z,954.16
2019-03-03T13:20:51.302Z,954.16
2019-03-03T13:23:17.617Z,954.15
2019-03-03T13:25:43.991Z,954.15
2019-03-03T13:28:10.266Z,954.09
2019-03-03T13:30:36.578Z,954.08
2019-03-03T13:33:02.894Z,954.05
2019-03-03T13:35:29.251Z,954.07
2019-03-03T13:37:55.540Z,954.01
2019-03-03T13:40:21.839Z,953.98
2019-03-03T13:42:48.173Z,954.01
2019-03-03T13:45:14.513Z,953.99
2019-03-03T13:47:40.820Z,953.99
2019-03-03T13:50:07.133Z,953.97
2019-03-03T13:52:33.441Z,953.96
2019-03-03T13:55:00.345Z,953.98
2019-03-03T13:57:26.554Z,953.89
2019-03-03T13:59:52.876Z,953.93
2019-03-03T14:02:19.191Z,953.89
2019-03-03T14:04:45.506Z,953.94
2019-03-03T14:07:11.814Z,953.95
2019-03-03T14:09:38.157Z,953.84
2019-03-03T14:12:04.524Z,953.85
2019-03-03T14:14:30.831Z,953.87
2019-03-03T14:16:57.143Z,953.90
2019-03-03T14:19:23.449Z,953.86
2019-03-03T14:21:49.784Z,953.82
2019-03-03T14:24:16.094Z,953.88
2019-03-03T14:26:42.397Z,953.86
2019-03-03T14:29:08.701Z,953.89
2019-03-03T14:31:35.015Z,953.79
2019-03-03T14:34:01.322Z,953.81
2019-03-03T14:36:27.670Z,953.80
2019-03-03T14:38:53.969Z,953.75
2019-03-03T14:41:20.291Z,953.76
2019-03-03T14:43:46.596Z,953.75
2019-03-03T14:46:12.907Z,953.75
2019-03-03T14:48:39.216Z,953.76
2019-03-03T14:51:05.527Z,953.71
2019-03-03T14:53:31.855Z,953.77
2019-03-03T14:55:58.165Z,953.74
2019-03-03T14:58:24.508Z,953.73
2019-03-03T15:00:50.807Z,953.69
2019-03-03T15:03:17.110Z,953.67
2019-03-03T15:05:43.424Z,953.67
2019-03-03T15:08:09.733Z,953.66
2019-03-03T15:10:36.048Z,953.67
2019-03-03T15:13:02.360Z,953.65
2019-03-03T15:15:28.723Z,953.64
2019-03-03T15:17:55.069Z,953.67
2019-03-03T15:20:21.383Z,953.71
2019-03-03T15:22:47.687Z,953.65
2019-03-03T15:25:13.995Z,953.63
2019-03-03T15:27:40.310Z,953.65
2019-03-03T15:30:06.616Z,953.73
2019-03-03T15:32:32.965Z,953.70
2019-03-03T15:34:59.282Z,953.68
2019-03-03T15:37:25.588Z,953.69
2019-03-03T15:39:51.895Z,953.68
2019-03-03T15:42:18.201Z,953.73
2019-03-03T15:44:44.507Z,953.75
2019-03-03T15:47:10.815Z,953.66
2019-03-03T15:49:37.120Z,953.70
2019-03-03T15:52:03.428Z,953.71
2019-03-03T15:54:29.772Z,953.71
2019-03-03T15:56:56.830Z,953.67
2019-03-03T15:59:23.132Z,953.69
2019-03-03T16:01:49.445Z,953.68
2019-03-03T16:04:15.756Z,953.69
2019-03-03T16:06:42.064Z,953.74
2019-03-03T16:09:08.382Z,953.67
2019-03-03T16:11:34.742Z,953.79
2019-03-03T16:14:01.047Z,953.82
2019-03-03T16:16:27.386Z,953.85
2019-03-03T16:18:53.688Z,953.81
2019-03-03T16:21:19.998Z,953.79
2019-03-03T16:23:46.309Z,953.76
2019-03-03T16:26:12.625Z,953.76
2019-03-03T16:28:38.978Z,953.70
2019-03-03T16:31:05.281Z,953.71
2019-03-03T16:33:31.606Z,953.74
2019-03-03T16:35:57.927Z,953.83
2019-03-03T16:38:24.231Z,953.78
2019-03-03T16:40:50.568Z,953.84
2019-03-03T16:43:16.881Z,953.86
2019-03-03T16:45:43.199Z,953.80
2019-03-03T16:48:09.507Z,953.85
2019-03-03T16:50:35.817Z,953.85
2019-03-03T16:53:02.126Z,953.81
2019-03-03T16:55:28.437Z,953.79
2019-03-03T16:57:54.757Z,953.81
2019-03-03T17:00:21.055Z,953.81
2019-03-03T17:02:47.375Z,953.86
2019-03-03T17:05:13.675Z,953.79
2019-03-03T17:07:39.991Z,953.82
2019-03-03T17:10:06.306Z,953.82
2019-03-03T17:12:32.786Z,953.87
2019-03-03T17:14:59.059Z,953.88
2019-03-03T17:17:25.370Z,953.90
2019-03-03T17:19:52.617Z,953.91
2019-03-03T17:22:18.932Z,953.92
2019-03-03T17:24:45.254Z,953.92
2019-03-03T17:27:11.556Z,953.99
2019-03-03T17:29:37.882Z,953.97
2019-03-03T17:32:04.208Z,953.92
2019-03-03T17:34:30.685Z,953.95
2019-03-03T17:36:57.040Z,953.99
2019-03-03T17:39:23.355Z,953.99
2019-03-03T17:41:49.696Z,953.99
2019-03-03T17:44:16.011Z,953.94
2019-03-03T17:46:42.317Z,953.92
2019-03-03T17:49:08.625Z,953.88
2019-03-03T17:51:34.966Z,953.89
2019-03-03T17:54:01.267Z,953.88
2019-03-03T17:56:27.577Z,954.00
2019-03-03T17:58:53.922Z,953.94
2019-03-03T18:01:20.250Z,954.00
2019-03-03T18:03:46.562Z,954.02
2019-03-03T18:06:12.866Z,954.04
2019-03-03T18:08:39.178Z,953.93
2019-03-03T18:11:05.496Z,953.97
2019-03-03T18:13:31.806Z,953.96
2019-03-03T18:15:58.123Z,953.92
2019-03-03T18:18:35.299Z,953.91
2019-03-03T18:20:58.466Z,953.97
2019-03-03T18:23:35.890Z,953.92
2019-03-03T18:25:59.652Z,953.90
2019-03-03T18:28:25.956Z,953.93
2019-03-03T18:30:52.658Z,953.90
2019-03-03T18:33:18.955Z,953.92
2019-03-03T18:35:45.261Z,953.92
2019-03-03T18:38:11.585Z,953.87
2019-03-03T18:40:37.907Z,953.87
2019-03-03T18:43:04.219Z,953.81
2019-03-03T18:45:30.529Z,953.85
2019-03-03T18:47:57.745Z,953.82
2019-03-03T18:50:24.054Z,953.88
2019-03-03T18:52:52.647Z,953.86
2019-03-03T18:55:19.001Z,953.84
2019-03-03T18:57:45.576Z,953.80
2019-03-03T19:00:11.918Z,953.91
2019-03-03T19:02:38.279Z,953.88
2019-03-03T19:05:04.590Z,953.84
2019-03-03T19:07:30.898Z,953.83
2019-03-03T19:09:57.209Z,953.87
2019-03-03T19:12:23.573Z,953.78
2019-03-03T19:14:49.857Z,953.86
2019-03-03T19:17:16.180Z,953.90
2019-03-03T19:19:42.517Z,953.85
2019-03-03T19:22:08.833Z,953.90
2019-03-03T19:24:35.141Z,953.93
2019-03-03T19:27:01.454Z,953.90
2019-03-03T19:29:27.756Z,953.86
2019-03-03T19:31:54.070Z,953.83
2019-03-03T19:34:20.375Z,953.86
2019-03-03T19:36:46.684Z,953.84
2019-03-03T19:39:12.993Z,953.87
2019-03-03T19:41:39.302Z,953.83
2019-03-03T19:44:05.608Z,953.83
2019-03-03T19:46:31.914Z,953.85
2019-03-03T19:48:58.232Z,953.87
2019-03-03T19:51:24.538Z,953.92
2019-03-03T19:53:50.854Z,953.89
2019-03-03T19:56:17.162Z,953.93
2019-03-03T19:58:43.476Z,953.90
2019-03-03T20:01:09.782Z,953.85
2019-03-03T20:03:36.095Z,953.89
2019-03-03T20:06:02.407Z,953.92
2019-03-03T20:08:28.719Z,953.86
2019-03-03T20:10:55.030Z,953.90
2019-03-03T20:13:21.341Z,953.85
2019-03-03T20:15:47.698Z,953.84
2019-03-03T20:18:14.005Z,953.89
2019-03-03T20:20:40.313Z,953.91
2019-03-03T20:23:06.616Z,953.79
2019-03-03T20:25:32.931Z,953.83
2019-03-03T20:27:59.249Z,953.78
2019-03-03T20:30:25.568Z,953.81
2019-03-03T20:32:51.888Z,953.79
2019-03-03T20:35:18.184Z,953.78
2019-03-03T20:37:44.492Z,953.80
2019-03-03T20:40:10.801Z,953.81
2019-03-03T20:42:37.151Z,953.78
2019-03-03T20:45:03.452Z,953.78
2019-03-03T20:47:30.995Z,953.76
2019-03-03T20:49:56.068Z,953.85
2019-03-03T20:52:22.375Z,953.80
2019-03-03T20:54:48.731Z,953.80
2019-03-03T20:57:15.079Z,953.78
2019-03-03T20:59:41.384Z,953.83
2019-03-03T21:02:07.692Z,953.79
2019-03-03T21:04:34.004Z,953.75
2019-03-03T21:07:00.312Z,953.81
2019-03-03T21:09:26.640Z,953.73
2019-03-03T21:11:52.951Z,953.77
2019-03-03T21:14:19.261Z,953.76
2019-03-03T21:16:45.575Z,953.70
2019-03-03T21:19:11.885Z,953.74
2019-03-03T21:21:38.198Z,953.71
2019-03-03T21:24:04.506Z,953.67
2019-03-03T21:26:30.822Z,953.66
2019-03-03T21:28:57.157Z,953.72
2019-03-03T21:31:23.470Z,953.72
2019-03-03T21:33:49.797Z,953.70
2019-03-03T21:36:16.156Z,953.72
2019-03-03T21:38:42.543Z,953.68
2019-03-03T21:41:08.875Z,953.63
2019-03-03T21:43:35.226Z,953.67
2019-03-03T21:46:01.575Z,953.58
2019-03-03T21:48:28.014Z,953.59
2019-03-03T21:50:54.285Z,953.56
2019-03-03T21:53:20.661Z,953.58
2019-03-03T21:55:46.969Z,953.57
2019-03-03T21:58:13.282Z,953.61
2019-03-03T22:00:39.594Z,953.53
2019-03-03T22:03:05.906Z,953.57
2019-03-03T22:05:32.213Z,953.57
2019-03-03T22:07:58.552Z,953.58
2019-03-03T22:10:24.862Z,953.54
2019-03-03T22:12:51.180Z,953.57
2019-03-03T22:15:17.484Z,953.56
2019-03-03T22:17:43.862Z,953.50
2019-03-03T22:20:10.170Z,953.54
2019-03-03T22:22:36.479Z,953.55
2019-03-03T22:25:02.833Z,953.58
2019-03-03T22:27:29.140Z,953.59
2019-03-03T22:29:57.335Z,953.60
2019-03-03T22:32:23.745Z,953.52
2019-03-03T22:34:50.179Z,953.49
2019-03-03T22:37:16.488Z,953.42
2019-03-03T22:39:42.939Z,953.44
2019-03-03T22:42:09.258Z,953.47
2019-03-03T22:44:35.579Z,953.45
2019-03-03T22:47:01.908Z,953.44
2019-03-03T22:49:28.216Z,953.38
2019-03-03T22:51:54.529Z,953.43
2019-03-03T22:54:20.838Z,953.45
2019-03-03T22:56:47.157Z,953.41
2019-03-03T22:59:13.463Z,953.52
2019-03-03T23:01:39.824Z,953.51
2019-03-03T23:04:06.134Z,953.57
2019-03-03T23:06:32.460Z,953.45
2019-03-03T23:08:58.847Z,953.50
2019-03-03T23:11:25.227Z,953.50
2019-03-03T23:13:51.690Z,953.51
2019-03-03T23:16:18.025Z,953.49
2019-03-03T23:18:44.443Z,953.50
2019-03-03T23:21:10.798Z,953.49
2019-03-03T23:23:37.218Z,953.52
2019-03-03T23:26:03.685Z,953.46
2019-03-03T23:28:30.087Z,953.49
2019-03-03T23:30:56.396Z,953.52
2019-03-03T23:33:22.733Z,953.45
2019-03-03T23:35:49.050Z,953.47
2019-03-03T23:38:15.381Z,953.41
2019-03-03T23:40:41.691Z,953.46
2019-03-03T23:43:07.997Z,953.47
2019-03-03T23:45:34.336Z,953.50
2019-03-03T23:48:00.647Z,953.42
2019-03-03T23:50:26.983Z,953.48
2019-03-03T23:52:53.311Z,953.42
2019-03-03T23:55:19.620Z,953.41
2019-03-03T23:57:45.936Z,953.48
